Oyama, Canada
Current Conditions -  °F | °C
As of 5:18 PM on Tuesday 25 Nov 2014 (Local Time) from CYLW Reporting Station
Light Rain Light Rain  
Wind Chill: 32°   Ceiling: 4000
Heat Index: 37°   Visibility: 9mi
Dew Point: 36°   Wind: 7mph
Humidity: 93%   Direction: 150°SSE
Pressure: 30.24"   Gusts: NA
Location:  50.11°N, 119.37°W
Report Text: CYLW 260118Z AUTO 15006KT 9SM -RA SCT022 OVC040 03/02 A3024 RMK SLP255
Loading
Personal Weather Stations






























Interactive Weather Map New forecast layout! Learn more

10-Day Weather Forecast

Advertisements
Track Severe Weather on mobile